Etusivu
METAR-TAF:

METAR-TAF

Lentoasemat :

Bagdadin kansainvälinen lentoasema

Bagdad, Irak

Leveyspiiri: 33-15-45N, Pituuspiiri: 44-14-04E, korkeus merenpinnasta: 35 m

Tämänhetkinen sää

Tämä raportti tehtiin 23 minuuttia sitten, kello 09.00 UTC
Tuuli 9 kn lännestä/luoteesta
Lämpötila 20°C
Kosteus 56%
Ilmanpaine 1021 hPa
Näkyvyys 10 km tai enemmän
Hajonneita pilviä 3000 ft:n korkeudessa

METAR: ORBI 190900Z 30009KT 9999 BKN030 20/11 Q1021 NOSIG

Aika: 12:23 (09:23 UTC)

Sääennuste

Tämä raportti tehtiin 5 tuntia ja 23 minuuttia sitten, kello 04.00 UTC
Ennuste voimassa 19. päivästä klo 06 UTC - 20. päivään klo 06 UTC
Tuuli 6 kn luoteesta
Näkyvyys: 8000 m

TAF: ORBI 190400Z 1906/2006 32006KT 8000 NSC

Säähavainnot ja -ennusteet yli 4000 lentoasemalta (METAR- ja TAF-raportit).

Käytössä olevat sääasemat on merkitty karttaan keltaisilla ja punaisilla pisteillä.

Aseta hiiri pisteen päälle nähdäksesi sääaseman nimen.

Klikkaa sitten nähdäksesi säähavainnot ja -ennusteet.

Kartan vaihtaminen: klikkaa mustalla rastilla varustettuja vihreitä pisteitä, niin voit zoomata sisään; viivalla varustettua vihreää pistettä, niin voit zoomata ulos tai vihreitä nuolia, niin pääset viereisille kartoille.


METAR-TAF: